sensor_id;sensor_type;location;lat;lon;timestamp;temperature;humidity
71175;DHT22;58876;51.994;4.472;2022-07-23T00:00:14;17.86;68.73
71175;DHT22;58876;51.994;4.472;2022-07-23T00:02:41;17.86;68.94
71175;DHT22;58876;51.994;4.472;2022-07-23T00:08:31;17.79;70.17
71175;DHT22;58876;51.994;4.472;2022-07-23T00:10:57;17.77;70.16
71175;DHT22;58876;51.994;4.472;2022-07-23T00:13:22;17.72;69.66
71175;DHT22;58876;51.994;4.472;2022-07-23T00:15:47;17.70;69.83
71175;DHT22;58876;51.994;4.472;2022-07-23T00:18:13;17.68;70.25
71175;DHT22;58876;51.994;4.472;2022-07-23T00:20:38;17.65;70.21
71175;DHT22;58876;51.994;4.472;2022-07-23T00:23:04;17.64;69.83
71175;DHT22;58876;51.994;4.472;2022-07-23T00:25:42;17.55;69.99
71175;DHT22;58876;51.994;4.472;2022-07-23T00:28:08;17.51;69.74
71175;DHT22;58876;51.994;4.472;2022-07-23T00:30:33;17.45;70.01
71175;DHT22;58876;51.994;4.472;2022-07-23T00:33:02;17.44;69.76
71175;DHT22;58876;51.994;4.472;2022-07-23T00:35:32;17.41;69.54
71175;DHT22;58876;51.994;4.472;2022-07-23T00:37:58;17.41;70.16
71175;DHT22;58876;51.994;4.472;2022-07-23T00:40:25;17.48;70.40
71175;DHT22;58876;51.994;4.472;2022-07-23T00:42:51;17.47;70.77
71175;DHT22;58876;51.994;4.472;2022-07-23T00:45:22;17.48;70.06
71175;DHT22;58876;51.994;4.472;2022-07-23T00:47:48;17.47;70.42
71175;DHT22;58876;51.994;4.472;2022-07-23T00:50:13;17.50;70.42
71175;DHT22;58876;51.994;4.472;2022-07-23T00:52:40;17.57;70.83
71175;DHT22;58876;51.994;4.472;2022-07-23T00:58:35;17.60;69.97
71175;DHT22;58876;51.994;4.472;2022-07-23T01:01:01;17.60;70.14
71175;DHT22;58876;51.994;4.472;2022-07-23T01:03:38;17.60;70.45
71175;DHT22;58876;51.994;4.472;2022-07-23T01:06:04;17.61;70.29
71175;DHT22;58876;51.994;4.472;2022-07-23T01:08:30;17.62;70.29
71175;DHT22;58876;51.994;4.472;2022-07-23T01:10:55;17.57;70.52
71175;DHT22;58876;51.994;4.472;2022-07-23T01:13:21;17.55;70.42
71175;DHT22;58876;51.994;4.472;2022-07-23T01:15:47;17.57;71.15
71175;DHT22;58876;51.994;4.472;2022-07-23T01:18:12;17.55;70.92
71175;DHT22;58876;51.994;4.472;2022-07-23T01:20:38;17.52;70.50
71175;DHT22;58876;51.994;4.472;2022-07-23T01:23:04;17.50;70.74
71175;DHT22;58876;51.994;4.472;2022-07-23T01:25:36;17.45;70.35
71175;DHT22;58876;51.994;4.472;2022-07-23T01:28:01;17.40;70.87
71175;DHT22;58876;51.994;4.472;2022-07-23T01:30:27;17.37;71.21
71175;DHT22;58876;51.994;4.472;2022-07-23T01:32:52;17.28;71.60
71175;DHT22;58876;51.994;4.472;2022-07-23T01:35:24;17.26;71.27
71175;DHT22;58876;51.994;4.472;2022-07-23T01:37:49;17.24;71.54
71175;DHT22;58876;51.994;4.472;2022-07-23T01:40:15;17.20;71.88
71175;DHT22;58876;51.994;4.472;2022-07-23T01:42:40;17.20;72.00
71175;DHT22;58876;51.994;4.472;2022-07-23T01:45:09;17.11;72.05
71175;DHT22;58876;51.994;4.472;2022-07-23T01:47:35;17.07;72.28
71175;DHT22;58876;51.994;4.472;2022-07-23T01:50:00;17.07;71.95
71175;DHT22;58876;51.994;4.472;2022-07-23T01:52:26;17.02;71.68
71175;DHT22;58876;51.994;4.472;2022-07-23T01:55:21;16.99;72.32
71175;DHT22;58876;51.994;4.472;2022-07-23T01:57:46;16.94;72.39
71175;DHT22;58876;51.994;4.472;2022-07-23T02:00:12;16.87;72.60
71175;DHT22;58876;51.994;4.472;2022-07-23T02:02:38;16.89;72.17
71175;DHT22;58876;51.994;4.472;2022-07-23T02:08:25;16.82;72.25
71175;DHT22;58876;51.994;4.472;2022-07-23T02:10:51;16.80;71.84
71175;DHT22;58876;51.994;4.472;2022-07-23T02:13:17;16.75;72.87
71175;DHT22;58876;51.994;4.472;2022-07-23T02:19:31;16.73;73.37
71175;DHT22;58876;51.994;4.472;2022-07-23T02:21:56;16.73;72.22
71175;DHT22;58876;51.994;4.472;2022-07-23T02:24:40;16.68;72.60
71175;DHT22;58876;51.994;4.472;2022-07-23T02:27:06;16.65;72.64
71175;DHT22;58876;51.994;4.472;2022-07-23T02:29:31;16.62;72.39
71175;DHT22;58876;51.994;4.472;2022-07-23T02:31:57;16.63;73.50
71175;DHT22;58876;51.994;4.472;2022-07-23T02:34:50;16.63;73.94
71175;DHT22;58876;51.994;4.472;2022-07-23T02:37:16;16.62;73.66
71175;DHT22;58876;51.994;4.472;2022-07-23T02:39:42;16.61;74.05
71175;DHT22;58876;51.994;4.472;2022-07-23T02:42:08;16.58;73.65
71175;DHT22;58876;51.994;4.472;2022-07-23T02:44:49;16.55;72.97
71175;DHT22;58876;51.994;4.472;2022-07-23T02:47:14;16.55;73.35
71175;DHT22;58876;51.994;4.472;2022-07-23T02:49:39;16.48;73.68
71175;DHT22;58876;51.994;4.472;2022-07-23T02:52:05;16.48;73.00
71175;DHT22;58876;51.994;4.472;2022-07-23T02:54:32;16.48;72.71
71175;DHT22;58876;51.994;4.472;2022-07-23T02:56:58;16.44;73.16
71175;DHT22;58876;51.994;4.472;2022-07-23T02:59:23;16.48;73.85
71175;DHT22;58876;51.994;4.472;2022-07-23T03:01:49;16.51;73.89
71175;DHT22;58876;51.994;4.472;2022-07-23T03:07:36;16.42;73.94
71175;DHT22;58876;51.994;4.472;2022-07-23T03:10:02;16.38;73.70
71175;DHT22;58876;51.994;4.472;2022-07-23T03:12:28;16.36;73.28
71175;DHT22;58876;51.994;4.472;2022-07-23T03:14:55;16.36;72.92
71175;DHT22;58876;51.994;4.472;2022-07-23T03:17:20;16.36;73.19
71175;DHT22;58876;51.994;4.472;2022-07-23T03:19:45;16.35;74.29
71175;DHT22;58876;51.994;4.472;2022-07-23T03:22:11;16.34;74.29
71175;DHT22;58876;51.994;4.472;2022-07-23T03:25:00;16.28;73.50
71175;DHT22;58876;51.994;4.472;2022-07-23T03:27:29;16.31;74.13
71175;DHT22;58876;51.994;4.472;2022-07-23T03:29:57;16.26;73.23
71175;DHT22;58876;51.994;4.472;2022-07-23T03:32:24;16.24;72.97
71175;DHT22;58876;51.994;4.472;2022-07-23T03:35:18;16.22;74.14
71175;DHT22;58876;51.994;4.472;2022-07-23T03:37:44;16.17;73.38
71175;DHT22;58876;51.994;4.472;2022-07-23T03:40:09;16.13;73.81
71175;DHT22;58876;51.994;4.472;2022-07-23T03:42:35;16.14;74.13
71175;DHT22;58876;51.994;4.472;2022-07-23T03:45:04;16.10;74.13
71175;DHT22;58876;51.994;4.472;2022-07-23T03:47:30;16.08;73.87
71175;DHT22;58876;51.994;4.472;2022-07-23T03:49:55;16.03;73.58
71175;DHT22;58876;51.994;4.472;2022-07-23T03:52:20;16.04;74.48
71175;DHT22;58876;51.994;4.472;2022-07-23T03:54:48;16.05;74.16
71175;DHT22;58876;51.994;4.472;2022-07-23T03:57:13;16.00;73.71
71175;DHT22;58876;51.994;4.472;2022-07-23T03:59:39;16.01;74.17
71175;DHT22;58876;51.994;4.472;2022-07-23T04:02:04;16.01;73.97
71175;DHT22;58876;51.994;4.472;2022-07-23T04:07:52;16.08;74.37
71175;DHT22;58876;51.994;4.472;2022-07-23T04:10:17;16.13;74.37
71175;DHT22;58876;51.994;4.472;2022-07-23T04:12:43;16.17;74.14
71175;DHT22;58876;51.994;4.472;2022-07-23T04:15:14;16.15;74.98
71175;DHT22;58876;51.994;4.472;2022-07-23T04:17:40;16.24;77.06
71175;DHT22;58876;51.994;4.472;2022-07-23T04:20:06;16.26;77.40
71175;DHT22;58876;51.994;4.472;2022-07-23T04:22:31;16.24;77.11
71175;DHT22;58876;51.994;4.472;2022-07-23T04:24:57;16.26;76.23
71175;DHT22;58876;51.994;4.472;2022-07-23T04:27:22;16.28;76.10
71175;DHT22;58876;51.994;4.472;2022-07-23T04:29:48;16.28;75.28
71175;DHT22;58876;51.994;4.472;2022-07-23T04:32:13;16.41;76.30
71175;DHT22;58876;51.994;4.472;2022-07-23T04:38:01;16.44;74.65
71175;DHT22;58876;51.994;4.472;2022-07-23T04:40:27;16.44;73.74
71175;DHT22;58876;51.994;4.472;2022-07-23T04:42:53;16.44;74.21
71175;DHT22;58876;51.994;4.472;2022-07-23T04:45:20;16.45;73.80
71175;DHT22;58876;51.994;4.472;2022-07-23T04:47:45;16.47;74.05
71175;DHT22;58876;51.994;4.472;2022-07-23T04:50:11;16.44;74.34
71175;DHT22;58876;51.994;4.472;2022-07-23T04:52:36;16.49;74.66
71175;DHT22;58876;51.994;4.472;2022-07-23T04:55:04;16.52;75.14
71175;DHT22;58876;51.994;4.472;2022-07-23T04:57:30;16.58;74.79
71175;DHT22;58876;51.994;4.472;2022-07-23T04:59:55;16.59;73.82
71175;DHT22;58876;51.994;4.472;2022-07-23T05:02:21;16.61;73.26
71175;DHT22;58876;51.994;4.472;2022-07-23T05:04:50;16.61;73.69
71175;DHT22;58876;51.994;4.472;2022-07-23T05:07:16;16.63;73.87
71175;DHT22;58876;51.994;4.472;2022-07-23T05:09:41;16.68;73.53
71175;DHT22;58876;51.994;4.472;2022-07-23T05:12:07;16.75;73.70
71175;DHT22;58876;51.994;4.472;2022-07-23T05:14:50;16.80;73.79
71175;DHT22;58876;51.994;4.472;2022-07-23T05:17:15;16.89;74.03
71175;DHT22;58876;51.994;4.472;2022-07-23T05:19:41;17.02;73.53
71175;DHT22;58876;51.994;4.472;2022-07-23T05:22:06;17.04;73.18
71175;DHT22;58876;51.994;4.472;2022-07-23T05:27:56;17.20;73.73
71175;DHT22;58876;51.994;4.472;2022-07-23T05:30:21;17.26;72.82
71175;DHT22;58876;51.994;4.472;2022-07-23T05:32:47;17.33;72.95
71175;DHT22;58876;51.994;4.472;2022-07-23T05:38:04;17.41;72.36
71175;DHT22;58876;51.994;4.472;2022-07-23T05:40:29;17.48;72.36
71175;DHT22;58876;51.994;4.472;2022-07-23T05:42:55;17.51;72.19
71175;DHT22;58876;51.994;4.472;2022-07-23T05:45:37;17.65;72.11
71175;DHT22;58876;51.994;4.472;2022-07-23T05:48:02;17.74;71.41
71175;DHT22;58876;51.994;4.472;2022-07-23T05:50:28;17.82;71.73
71175;DHT22;58876;51.994;4.472;2022-07-23T05:52:53;17.89;71.75
71175;DHT22;58876;51.994;4.472;2022-07-23T05:55:22;17.82;71.47
71175;DHT22;58876;51.994;4.472;2022-07-23T05:57:47;17.83;71.69
71175;DHT22;58876;51.994;4.472;2022-07-23T06:00:13;17.88;71.29
71175;DHT22;58876;51.994;4.472;2022-07-23T06:02:39;17.91;69.42
71175;DHT22;58876;51.994;4.472;2022-07-23T06:05:12;17.98;68.77
71175;DHT22;58876;51.994;4.472;2022-07-23T06:07:38;18.05;68.57
71175;DHT22;58876;51.994;4.472;2022-07-23T06:10:04;18.13;68.33
71175;DHT22;58876;51.994;4.472;2022-07-23T06:12:30;18.20;68.49
71175;DHT22;58876;51.994;4.472;2022-07-23T06:15:18;18.25;67.81
71175;DHT22;58876;51.994;4.472;2022-07-23T06:17:43;18.23;66.79
71175;DHT22;58876;51.994;4.472;2022-07-23T06:20:09;18.34;67.07
71175;DHT22;58876;51.994;4.472;2022-07-23T06:22:36;18.41;67.15
71175;DHT22;58876;51.994;4.472;2022-07-23T06:25:03;18.47;67.11
71175;DHT22;58876;51.994;4.472;2022-07-23T06:27:28;18.54;67.13
71175;DHT22;58876;51.994;4.472;2022-07-23T06:29:54;18.61;67.08
71175;DHT22;58876;51.994;4.472;2022-07-23T06:32:20;18.70;66.57
71175;DHT22;58876;51.994;4.472;2022-07-23T06:34:50;18.84;67.09
71175;DHT22;58876;51.994;4.472;2022-07-23T06:37:16;19.04;66.83
71175;DHT22;58876;51.994;4.472;2022-07-23T06:39:42;19.25;66.57
71175;DHT22;58876;51.994;4.472;2022-07-23T06:42:07;19.33;64.10
71175;DHT22;58876;51.994;4.472;2022-07-23T06:44:45;19.46;64.61
71175;DHT22;58876;51.994;4.472;2022-07-23T06:47:10;19.53;64.79
71175;DHT22;58876;51.994;4.472;2022-07-23T06:49:36;19.56;65.21
71175;DHT22;58876;51.994;4.472;2022-07-23T06:52:04;19.57;65.09
71175;DHT22;58876;51.994;4.472;2022-07-23T06:54:30;19.63;64.40
71175;DHT22;58876;51.994;4.472;2022-07-23T06:56:56;19.79;64.03
71175;DHT22;58876;51.994;4.472;2022-07-23T06:59:22;19.98;63.12
71175;DHT22;58876;51.994;4.472;2022-07-23T07:01:47;20.20;62.22
71175;DHT22;58876;51.994;4.472;2022-07-23T07:04:15;20.41;61.82
71175;DHT22;58876;51.994;4.472;2022-07-23T07:06:40;20.59;59.42
71175;DHT22;58876;51.994;4.472;2022-07-23T07:09:06;20.89;61.15
71175;DHT22;58876;51.994;4.472;2022-07-23T07:12:05;21.17;59.74
71175;DHT22;58876;51.994;4.472;2022-07-23T07:14:39;21.41;59.51
71175;DHT22;58876;51.994;4.472;2022-07-23T07:17:04;21.55;57.07
71175;DHT22;58876;51.994;4.472;2022-07-23T07:19:30;21.58;57.55
71175;DHT22;58876;51.994;4.472;2022-07-23T07:21:55;21.73;57.56
71175;DHT22;58876;51.994;4.472;2022-07-23T07:24:42;21.82;58.02
71175;DHT22;58876;51.994;4.472;2022-07-23T07:27:08;21.65;57.35
71175;DHT22;58876;51.994;4.472;2022-07-23T07:29:33;21.51;58.60
71175;DHT22;58876;51.994;4.472;2022-07-23T07:31:58;21.64;56.85
71175;DHT22;58876;51.994;4.472;2022-07-23T07:34:24;21.94;57.13
71175;DHT22;58876;51.994;4.472;2022-07-23T07:36:49;22.17;56.66
71175;DHT22;58876;51.994;4.472;2022-07-23T07:39:15;22.20;55.74
71175;DHT22;58876;51.994;4.472;2022-07-23T07:41:40;22.65;54.76
71175;DHT22;58876;51.994;4.472;2022-07-23T07:44:06;23.14;53.79
71175;DHT22;58876;51.994;4.472;2022-07-23T07:46:31;23.41;53.15
71175;DHT22;58876;51.994;4.472;2022-07-23T07:48:57;23.80;51.86
71175;DHT22;58876;51.994;4.472;2022-07-23T07:55:03;25.91;46.90
71175;DHT22;58876;51.994;4.472;2022-07-23T07:57:29;26.73;42.94
71175;DHT22;58876;51.994;4.472;2022-07-23T07:59:54;27.27;42.14
71175;DHT22;58876;51.994;4.472;2022-07-23T08:02:20;27.73;40.66
71175;DHT22;58876;51.994;4.472;2022-07-23T08:04:51;27.48;42.30
71175;DHT22;58876;51.994;4.472;2022-07-23T08:07:17;26.90;41.97
71175;DHT22;58876;51.994;4.472;2022-07-23T08:09:43;27.08;43.72
71175;DHT22;58876;51.994;4.472;2022-07-23T08:12:08;27.76;42.72
71175;DHT22;58876;51.994;4.472;2022-07-23T08:14:34;27.44;42.90
71175;DHT22;58876;51.994;4.472;2022-07-23T08:17:02;27.00;41.71
71175;DHT22;58876;51.994;4.472;2022-07-23T08:19:27;27.14;44.10
71175;DHT22;58876;51.994;4.472;2022-07-23T08:21:53;27.55;42.30
71175;DHT22;58876;51.994;4.472;2022-07-23T08:24:18;28.02;40.89
71175;DHT22;58876;51.994;4.472;2022-07-23T08:26:46;28.10;40.99
71175;DHT22;58876;51.994;4.472;2022-07-23T08:29:11;28.43;41.33
71175;DHT22;58876;51.994;4.472;2022-07-23T08:31:37;28.57;39.73
71175;DHT22;58876;51.994;4.472;2022-07-23T08:34:02;28.21;40.63
71175;DHT22;58876;51.994;4.472;2022-07-23T08:36:28;28.36;41.35
71175;DHT22;58876;51.994;4.472;2022-07-23T08:38:58;28.71;40.20
71175;DHT22;58876;51.994;4.472;2022-07-23T08:41:24;29.02;40.04
71175;DHT22;58876;51.994;4.472;2022-07-23T08:43:50;29.34;37.95
71175;DHT22;58876;51.994;4.472;2022-07-23T08:46:19;28.94;37.74
71175;DHT22;58876;51.994;4.472;2022-07-23T08:48:48;27.65;41.45
71175;DHT22;58876;51.994;4.472;2022-07-23T08:51:15;27.15;43.00
71175;DHT22;58876;51.994;4.472;2022-07-23T08:53:41;26.98;44.45
71175;DHT22;58876;51.994;4.472;2022-07-23T08:56:09;27.25;43.49
71175;DHT22;58876;51.994;4.472;2022-07-23T08:58:35;27.83;41.50
71175;DHT22;58876;51.994;4.472;2022-07-23T09:01:01;27.81;42.85
71175;DHT22;58876;51.994;4.472;2022-07-23T09:06:51;28.34;39.89
71175;DHT22;58876;51.994;4.472;2022-07-23T09:09:20;28.14;41.01
71175;DHT22;58876;51.994;4.472;2022-07-23T09:12:07;28.52;40.79
71175;DHT22;58876;51.994;4.472;2022-07-23T09:14:56;28.36;38.56
71175;DHT22;58876;51.994;4.472;2022-07-23T09:17:39;27.99;40.93
71175;DHT22;58876;51.994;4.472;2022-07-23T09:20:14;27.66;41.75
71175;DHT22;58876;51.994;4.472;2022-07-23T09:22:46;27.85;40.89
71175;DHT22;58876;51.994;4.472;2022-07-23T09:25:21;28.17;40.24
71175;DHT22;58876;51.994;4.472;2022-07-23T09:30:26;27.89;40.98
71175;DHT22;58876;51.994;4.472;2022-07-23T09:33:12;27.61;41.60
71175;DHT22;58876;51.994;4.472;2022-07-23T09:35:53;27.59;41.95
71175;DHT22;58876;51.994;4.472;2022-07-23T09:38:23;27.23;41.09
71175;DHT22;58876;51.994;4.472;2022-07-23T09:41:09;26.98;43.38
71175;DHT22;58876;51.994;4.472;2022-07-23T09:43:35;27.27;41.59
71175;DHT22;58876;51.994;4.472;2022-07-23T09:46:20;27.46;42.61
71175;DHT22;58876;51.994;4.472;2022-07-23T09:48:49;27.90;41.81
71175;DHT22;58876;51.994;4.472;2022-07-23T09:51:17;27.63;42.93
71175;DHT22;58876;51.994;4.472;2022-07-23T09:53:52;27.48;42.54
71175;DHT22;58876;51.994;4.472;2022-07-23T09:56:20;27.45;42.03
71175;DHT22;58876;51.994;4.472;2022-07-23T09:58:50;28.00;41.87
71175;DHT22;58876;51.994;4.472;2022-07-23T10:01:17;27.78;42.00
71175;DHT22;58876;51.994;4.472;2022-07-23T10:04:20;27.01;43.67
71175;DHT22;58876;51.994;4.472;2022-07-23T10:06:48;27.07;43.96
71175;DHT22;58876;51.994;4.472;2022-07-23T10:09:20;27.21;43.23
71175;DHT22;58876;51.994;4.472;2022-07-23T10:11:49;27.52;46.57
71175;DHT22;58876;51.994;4.472;2022-07-23T10:14:19;27.30;41.74
71175;DHT22;58876;51.994;4.472;2022-07-23T10:16:49;27.82;43.55
71175;DHT22;58876;51.994;4.472;2022-07-23T10:19:24;28.27;40.35
71175;DHT22;58876;51.994;4.472;2022-07-23T10:22:23;28.10;45.51
71175;DHT22;58876;51.994;4.472;2022-07-23T10:28:20;27.96;41.24
71175;DHT22;58876;51.994;4.472;2022-07-23T10:39:22;26.72;40.95
71175;DHT22;58876;51.994;4.472;2022-07-23T10:41:53;26.64;45.27
71175;DHT22;58876;51.994;4.472;2022-07-23T10:44:40;26.77;43.00
71175;DHT22;58876;51.994;4.472;2022-07-23T10:47:25;27.20;45.89
71175;DHT22;58876;51.994;4.472;2022-07-23T10:50:20;27.04;42.17
71175;DHT22;58876;51.994;4.472;2022-07-23T10:55:48;26.11;42.34
71175;DHT22;58876;51.994;4.472;2022-07-23T10:58:22;25.84;44.66
71175;DHT22;58876;51.994;4.472;2022-07-23T11:00:49;25.73;45.53
71175;DHT22;58876;51.994;4.472;2022-07-23T11:03:55;26.24;42.57
71175;DHT22;58876;51.994;4.472;2022-07-23T11:06:21;26.46;41.98
71175;DHT22;58876;51.994;4.472;2022-07-23T11:08:46;26.11;42.12
71175;DHT22;58876;51.994;4.472;2022-07-23T11:11:12;26.09;46.05
71175;DHT22;58876;51.994;4.472;2022-07-23T11:16:47;26.82;43.06
71175;DHT22;58876;51.994;4.472;2022-07-23T11:19:13;27.32;42.03
71175;DHT22;58876;51.994;4.472;2022-07-23T11:24:13;27.37;42.47
71175;DHT22;58876;51.994;4.472;2022-07-23T11:31:56;27.12;39.68
71175;DHT22;58876;51.994;4.472;2022-07-23T11:37:05;26.67;41.56
71175;DHT22;58876;51.994;4.472;2022-07-23T11:39:32;26.79;42.66
71175;DHT22;58876;51.994;4.472;2022-07-23T11:42:00;27.01;39.04
71175;DHT22;58876;51.994;4.472;2022-07-23T11:44:58;27.51;43.58
71175;DHT22;58876;51.994;4.472;2022-07-23T11:47:26;27.25;41.89
71175;DHT22;58876;51.994;4.472;2022-07-23T11:49:56;27.38;40.50
71175;DHT22;58876;51.994;4.472;2022-07-23T11:52:23;27.39;41.56
71175;DHT22;58876;51.994;4.472;2022-07-23T11:54:55;27.93;40.04
71175;DHT22;58876;51.994;4.472;2022-07-23T11:57:27;28.30;40.32
71175;DHT22;58876;51.994;4.472;2022-07-23T12:00:06;28.40;36.36
71175;DHT22;58876;51.994;4.472;2022-07-23T12:02:33;28.44;40.21
71175;DHT22;58876;51.994;4.472;2022-07-23T12:05:01;28.31;38.24
71175;DHT22;58876;51.994;4.472;2022-07-23T12:07:38;28.33;38.31
71175;DHT22;58876;51.994;4.472;2022-07-23T12:10:16;28.34;37.18
71175;DHT22;58876;51.994;4.472;2022-07-23T12:12:48;27.75;38.75
71175;DHT22;58876;51.994;4.472;2022-07-23T12:15:49;27.39;39.06
71175;DHT22;58876;51.994;4.472;2022-07-23T12:18:20;27.37;42.06
71175;DHT22;58876;51.994;4.472;2022-07-23T12:20:52;27.99;42.02
71175;DHT22;58876;51.994;4.472;2022-07-23T12:23:20;28.25;40.51
71175;DHT22;58876;51.994;4.472;2022-07-23T12:25:47;28.69;40.12
71175;DHT22;58876;51.994;4.472;2022-07-23T12:28:40;29.09;40.69
71175;DHT22;58876;51.994;4.472;2022-07-23T12:31:07;29.37;39.51
71175;DHT22;58876;51.994;4.472;2022-07-23T12:33:38;29.92;37.12
71175;DHT22;58876;51.994;4.472;2022-07-23T12:36:06;29.73;36.16
71175;DHT22;58876;51.994;4.472;2022-07-23T12:38:41;29.49;37.40
71175;DHT22;58876;51.994;4.472;2022-07-23T12:41:07;28.07;38.95
71175;DHT22;58876;51.994;4.472;2022-07-23T12:43:37;26.88;41.05
71175;DHT22;58876;51.994;4.472;2022-07-23T12:46:04;26.95;42.52
71175;DHT22;58876;51.994;4.472;2022-07-23T12:48:32;26.94;42.23
71175;DHT22;58876;51.994;4.472;2022-07-23T12:51:01;27.35;42.23
71175;DHT22;58876;51.994;4.472;2022-07-23T12:56:14;28.16;42.47
71175;DHT22;58876;51.994;4.472;2022-07-23T12:58:45;28.20;41.04
71175;DHT22;58876;51.994;4.472;2022-07-23T13:04:09;28.64;37.61
71175;DHT22;58876;51.994;4.472;2022-07-23T13:06:43;28.74;41.05
71175;DHT22;58876;51.994;4.472;2022-07-23T13:09:12;29.50;40.49
71175;DHT22;58876;51.994;4.472;2022-07-23T13:11:38;30.21;36.98
71175;DHT22;58876;51.994;4.472;2022-07-23T13:14:05;29.98;38.36
71175;DHT22;58876;51.994;4.472;2022-07-23T13:16:31;29.51;38.51
71175;DHT22;58876;51.994;4.472;2022-07-23T13:18:58;28.36;40.82
71175;DHT22;58876;51.994;4.472;2022-07-23T13:21:24;28.31;40.13
71175;DHT22;58876;51.994;4.472;2022-07-23T13:23:49;28.04;41.39
71175;DHT22;58876;51.994;4.472;2022-07-23T13:26:15;27.28;42.57
71175;DHT22;58876;51.994;4.472;2022-07-23T13:28:40;27.39;44.20
71175;DHT22;58876;51.994;4.472;2022-07-23T13:31:06;27.93;40.03
71175;DHT22;58876;51.994;4.472;2022-07-23T13:33:33;28.03;41.82
71175;DHT22;58876;51.994;4.472;2022-07-23T13:35:58;28.52;41.66
71175;DHT22;58876;51.994;4.472;2022-07-23T13:38:24;28.65;39.96
71175;DHT22;58876;51.994;4.472;2022-07-23T13:40:50;27.86;42.04
71175;DHT22;58876;51.994;4.472;2022-07-23T13:43:19;28.24;40.86
71175;DHT22;58876;51.994;4.472;2022-07-23T13:45:45;28.67;40.06
71175;DHT22;58876;51.994;4.472;2022-07-23T13:48:13;28.68;40.97
71175;DHT22;58876;51.994;4.472;2022-07-23T13:50:40;29.53;40.00
71175;DHT22;58876;51.994;4.472;2022-07-23T13:53:09;29.12;37.82
71175;DHT22;58876;51.994;4.472;2022-07-23T13:55:35;28.50;39.47
71175;DHT22;58876;51.994;4.472;2022-07-23T13:58:02;28.60;40.45
71175;DHT22;58876;51.994;4.472;2022-07-23T14:00:29;28.83;40.42
71175;DHT22;58876;51.994;4.472;2022-07-23T14:02:57;28.76;41.56
71175;DHT22;58876;51.994;4.472;2022-07-23T14:05:23;29.29;40.71
71175;DHT22;58876;51.994;4.472;2022-07-23T14:07:48;29.87;39.48
71175;DHT22;58876;51.994;4.472;2022-07-23T14:10:16;30.19;37.46
71175;DHT22;58876;51.994;4.472;2022-07-23T14:12:47;29.81;39.92
71175;DHT22;58876;51.994;4.472;2022-07-23T14:15:13;29.76;41.08
71175;DHT22;58876;51.994;4.472;2022-07-23T14:17:40;30.08;40.51
71175;DHT22;58876;51.994;4.472;2022-07-23T14:20:08;30.63;39.98
71175;DHT22;58876;51.994;4.472;2022-07-23T14:22:36;31.08;39.22
71175;DHT22;58876;51.994;4.472;2022-07-23T14:25:06;30.88;36.15
71175;DHT22;58876;51.994;4.472;2022-07-23T14:27:32;30.51;38.61
71175;DHT22;58876;51.994;4.472;2022-07-23T14:30:01;30.48;37.83
71175;DHT22;58876;51.994;4.472;2022-07-23T14:32:29;30.46;37.73
71175;DHT22;58876;51.994;4.472;2022-07-23T14:34:55;29.77;38.71
71175;DHT22;58876;51.994;4.472;2022-07-23T14:37:20;29.81;40.62
71175;DHT22;58876;51.994;4.472;2022-07-23T14:39:46;30.24;39.44
71175;DHT22;58876;51.994;4.472;2022-07-23T14:42:12;30.07;40.26
71175;DHT22;58876;51.994;4.472;2022-07-23T14:48:00;29.53;42.48
71175;DHT22;58876;51.994;4.472;2022-07-23T14:50:28;30.15;39.15
71175;DHT22;58876;51.994;4.472;2022-07-23T14:52:54;30.25;39.85
71175;DHT22;58876;51.994;4.472;2022-07-23T14:55:26;30.28;41.48
71175;DHT22;58876;51.994;4.472;2022-07-23T14:57:51;30.32;36.72
71175;DHT22;58876;51.994;4.472;2022-07-23T15:00:17;29.51;39.69
71175;DHT22;58876;51.994;4.472;2022-07-23T15:02:42;29.33;39.04
71175;DHT22;58876;51.994;4.472;2022-07-23T15:05:15;29.40;42.43
71175;DHT22;58876;51.994;4.472;2022-07-23T15:07:41;29.70;39.30
71175;DHT22;58876;51.994;4.472;2022-07-23T15:10:07;29.90;41.25
71175;DHT22;58876;51.994;4.472;2022-07-23T15:12:32;29.66;40.62
71175;DHT22;58876;51.994;4.472;2022-07-23T15:14:58;29.60;40.60
71175;DHT22;58876;51.994;4.472;2022-07-23T15:17:23;29.85;40.26
71175;DHT22;58876;51.994;4.472;2022-07-23T15:19:49;29.67;39.40
71175;DHT22;58876;51.994;4.472;2022-07-23T15:22:16;29.18;39.74
71175;DHT22;58876;51.994;4.472;2022-07-23T15:25:00;29.45;39.66
71175;DHT22;58876;51.994;4.472;2022-07-23T15:27:27;29.78;39.01
71175;DHT22;58876;51.994;4.472;2022-07-23T15:29:52;30.25;40.33
71175;DHT22;58876;51.994;4.472;2022-07-23T15:32:17;30.62;36.93
71175;DHT22;58876;51.994;4.472;2022-07-23T15:34:43;30.35;38.10
71175;DHT22;58876;51.994;4.472;2022-07-23T15:37:08;30.38;38.82
71175;DHT22;58876;51.994;4.472;2022-07-23T15:39:34;30.19;37.61
71175;DHT22;58876;51.994;4.472;2022-07-23T15:42:01;29.82;40.64
71175;DHT22;58876;51.994;4.472;2022-07-23T15:44:28;30.09;39.96
71175;DHT22;58876;51.994;4.472;2022-07-23T15:46:56;29.94;41.44
71175;DHT22;58876;51.994;4.472;2022-07-23T15:49:21;30.42;38.78
71175;DHT22;58876;51.994;4.472;2022-07-23T15:51:47;29.81;36.89
71175;DHT22;58876;51.994;4.472;2022-07-23T15:54:13;29.90;38.14
71175;DHT22;58876;51.994;4.472;2022-07-23T15:56:38;30.11;37.47
71175;DHT22;58876;51.994;4.472;2022-07-23T15:59:04;30.02;36.17
71175;DHT22;58876;51.994;4.472;2022-07-23T16:01:30;29.64;39.41
71175;DHT22;58876;51.994;4.472;2022-07-23T16:04:07;29.80;37.55
71175;DHT22;58876;51.994;4.472;2022-07-23T16:06:35;30.17;36.66
71175;DHT22;58876;51.994;4.472;2022-07-23T16:09:01;29.96;36.01
71175;DHT22;58876;51.994;4.472;2022-07-23T16:11:27;29.30;37.46
71175;DHT22;58876;51.994;4.472;2022-07-23T16:13:59;28.17;37.94
71175;DHT22;58876;51.994;4.472;2022-07-23T16:16:25;28.21;38.99
71175;DHT22;58876;51.994;4.472;2022-07-23T16:18:52;28.65;39.25
71175;DHT22;58876;51.994;4.472;2022-07-23T16:21:17;28.89;37.56
71175;DHT22;58876;51.994;4.472;2022-07-23T16:23:43;28.33;39.03
71175;DHT22;58876;51.994;4.472;2022-07-23T16:26:09;29.06;37.37
71175;DHT22;58876;51.994;4.472;2022-07-23T16:28:35;29.06;37.57
71175;DHT22;58876;51.994;4.472;2022-07-23T16:31:01;29.36;39.19
71175;DHT22;58876;51.994;4.472;2022-07-23T16:33:27;29.56;39.28
71175;DHT22;58876;51.994;4.472;2022-07-23T16:35:52;29.39;37.98
71175;DHT22;58876;51.994;4.472;2022-07-23T16:38:18;29.08;37.47
71175;DHT22;58876;51.994;4.472;2022-07-23T16:40:43;28.96;38.33
71175;DHT22;58876;51.994;4.472;2022-07-23T16:43:09;29.26;39.34
71175;DHT22;58876;51.994;4.472;2022-07-23T16:45:40;29.39;38.39
71175;DHT22;58876;51.994;4.472;2022-07-23T16:48:06;29.23;39.97
71175;DHT22;58876;51.994;4.472;2022-07-23T16:50:31;29.67;38.47
71175;DHT22;58876;51.994;4.472;2022-07-23T16:52:57;29.33;40.08
71175;DHT22;58876;51.994;4.472;2022-07-23T16:55:41;29.43;38.00